Impacts METAR Board
IDs:

KMCO - Orlando Intl, FL, US

Updated at: 1100 UTC 21 Sep 2018
Potential Impact None Slight Moderate High
Time 20/23Z 21/00Z 21/01Z 21/02Z 21/03Z 21/04Z 21/05Z 21/06Z 21/07Z 21/08Z 21/09Z 21/10Z 21/11Z
Temp85 83 81 81 80 79 79 78 78 77 77 77 78
Dewpt74 75 76 76 76 76 76 77 76 76 76 76 76
Altim30.02 30.05 30.05 30.08 30.09 30.09 30.08 30.07 30.06 30.05 30.04 30.06 30.07
VIS10 10 10 10 10 10 10 10 10 10 10 10 10
CIG-- -- -- -- -- -- -- -- -- -- -- -- --
CoverFEWFEWFEWFEWFEWFEWFEWFEWFEWFEWSCTSCTSCT
FltCatVFRVFRVFRVFRVFRVFRVFRVFRVFRVFRVFRVFRVFR
WX--------------------------
WDir8080609090800809080606050
WSpd9 8 7 4 4 4 0 3 3 3 4 3 3
WGst-- -- -- -- -- -- -- -- -- -- -- -- --
Raw hourly METARs
KMCO 202253Z 08009KT 10SM FEW050 FEW150 FEW250 29/23 A3002 RMK AO2 LTG DSNT S SLP163 T02940233
KMCO 202353Z 08008KT 10SM FEW060 FEW150 FEW250 28/24 A3005 RMK AO2 SLP174 60003 T02830239 10344 20267 53014
KMCO 210053Z 06007KT 10SM FEW050 FEW150 27/24 A3005 RMK AO2 SLP175 T02720244
KMCO 210153Z 09004KT 10SM FEW150 27/24 A3008 RMK AO2 SLP183 T02720244
KMCO 210253Z 09004KT 10SM FEW030 FEW250 27/24 A3009 RMK AO2 SLP188 T02670244 53015
KMCO 210353Z 08004KT 10SM FEW030 FEW130 26/24 A3009 RMK AO2 SLP186 T02610244
KMCO 210453Z 00000KT 10SM FEW030 26/24 A3008 RMK AO2 SLP183 T02610244 403440233
KMCO 210553Z 08003KT 10SM FEW030 26/25 A3007 RMK AO2 SLP180 T02560250 10283 20244 58008
KMCO 210653Z 09003KT 10SM FEW110 26/24 A3006 RMK AO2 SLP176 T02560244
KMCO 210753Z 08003KT 10SM FEW110 25/24 A3005 RMK AO2 SLP173 T02500244
KMCO 210853Z 06004KT 10SM FEW035 SCT250 25/24 A3004 RMK AO2 SLP171 T02500244 56009
KMCO 210953Z 06003KT 10SM FEW030 SCT250 25/24 A3006 RMK AO2 SLP177 T02500244
KMCO 211053Z 05003KT 10SM FEW025 SCT130 SCT250 26/24 A3007 RMK AO2 SLP179 CB DSNT SE TCU DSNT NE T02560244



Page loaded:  11:45 UTC  |   04:45 AM Pacific  |   05:45 AM Mountain  |   06:45 AM Central  |   07:45 AM Eastern

 

ADVISORIES

FORECASTS

FORECASTS

OBSERVATIONS

USER TOOLS

ABOUT US